Time;durP1;ratioP1;P1;durP2;ratioP2;P2;SDS_P1;SDS_P2;PMS_P1;PMS_P2;Temp;Humidity;BMP_temperature;BMP_pressure;BME280_temperature;BME280_humidity;BME280_pressure;Samples;Min_cycle;Max_cycle;Signal;HPM_P1;HPM_P2
2021/11/01 00:02:21;;;;;;;2.50;1.30;;;19.90;64.90;;;;;;5059660;28;20225;-67
2021/11/01 00:04:52;;;;;;;3.67;1.50;;;19.90;64.90;;;;;;5045833;28;20220;-67
2021/11/01 00:07:25;;;;;;;2.60;1.27;;;19.90;64.90;;;;;;5064602;28;20263;-67
2021/11/01 00:09:55;;;;;;;3.90;1.90;;;19.90;64.90;;;;;;5062281;28;20218;-67
2021/11/01 00:12:28;;;;;;;2.43;1.40;;;19.90;64.90;;;;;;5046716;28;20224;-67
2021/11/01 00:15:09;;;;;;;2.83;1.30;;;19.90;64.90;;;;;;5037353;28;20297;-67
2021/11/01 00:17:41;;;;;;;2.53;1.43;;;19.90;64.90;;;;;;5059042;28;20197;-67
2021/11/01 00:20:12;;;;;;;3.70;1.37;;;19.90;64.90;;;;;;5035521;28;20641;-68
2021/11/01 00:22:45;;;;;;;3.60;1.63;;;19.80;64.80;;;;;;5046911;28;20197;-67
2021/11/01 00:25:15;;;;;;;2.73;1.40;;;19.80;64.80;;;;;;5061446;28;20257;-67
2021/11/01 00:27:59;;;;;;;3.80;1.40;;;19.80;64.80;;;;;;5045427;28;20276;-67
2021/11/01 00:30:41;;;;;;;2.20;1.10;;;19.80;64.80;;;;;;5042506;28;20269;-67
2021/11/01 00:33:13;;;;;;;3.17;1.60;;;19.80;64.80;;;;;;5019268;28;20195;-66
2021/11/01 00:35:43;;;;;;;2.63;1.33;;;19.80;64.80;;;;;;5034615;28;20633;-67
2021/11/01 00:38:13;;;;;;;2.47;1.20;;;19.80;64.80;;;;;;5045918;28;20541;-67
2021/11/01 00:40:55;;;;;;;3.27;1.23;;;19.80;64.80;;;;;;5038555;28;20250;-66
2021/11/01 00:43:26;;;;;;;3.10;1.40;;;19.80;64.80;;;;;;5047511;28;20194;-66
2021/11/01 00:45:59;;;;;;;3.17;1.23;;;19.70;64.80;;;;;;5037285;28;20218;-66
2021/11/01 00:48:28;;;;;;;3.10;1.43;;;19.80;64.80;;;;;;5043014;28;20190;-66
2021/11/01 00:51:10;;;;;;;2.50;1.33;;;19.70;64.80;;;;;;5043437;28;20213;-67
2021/11/01 00:53:47;;;;;;;3.53;1.50;;;19.70;64.80;;;;;;5047797;28;20210;-66
2021/11/01 00:56:20;;;;;;;2.43;1.53;;;19.70;64.70;;;;;;5041357;28;20239;-67
2021/11/01 00:58:51;;;;;;;3.77;1.33;;;19.70;64.80;;;;;;5042376;28;20646;-67
2021/11/01 01:01:25;;;;;;;2.07;1.10;;;19.70;64.70;;;;;;5038441;28;20565;-66
2021/11/01 01:03:53;;;;;;;4.10;1.03;;;19.70;64.70;;;;;;5030220;28;20202;-67
2021/11/01 01:06:24;;;;;;;4.10;1.23;;;19.70;64.70;;;;;;5018926;28;20197;-67
2021/11/01 01:08:52;;;;;;;2.67;1.37;;;19.70;64.70;;;;;;5021408;28;20621;-67
2021/11/01 01:11:24;;;;;;;2.50;1.27;;;19.70;64.70;;;;;;5042232;28;20554;-67
2021/11/01 01:13:55;;;;;;;2.47;1.23;;;19.70;64.60;;;;;;5021654;28;20191;-67
2021/11/01 01:16:27;;;;;;;3.10;1.50;;;19.60;64.60;;;;;;5045322;28;20218;-67
2021/11/01 01:18:58;;;;;;;1.87;1.13;;;19.60;64.60;;;;;;5045273;28;20226;-67
2021/11/01 01:24:21;;;;;;;2.73;1.20;;;19.60;64.60;;;;;;5040523;28;20209;-67
2021/11/01 01:26:55;;;;;;;2.30;1.40;;;19.60;64.60;;;;;;5029860;28;20637;-67
2021/11/01 01:29:24;;;;;;;1.93;1.00;;;19.60;64.60;;;;;;5055902;28;20665;-67
2021/11/01 01:31:55;;;;;;;2.47;1.20;;;19.60;64.60;;;;;;5043219;28;20544;-67
2021/11/01 01:34:28;;;;;;;2.63;1.00;;;19.60;64.60;;;;;;5055736;28;20197;-67
2021/11/01 01:36:59;;;;;;;2.23;1.20;;;19.60;64.60;;;;;;5059167;28;20289;-66
2021/11/01 01:39:29;;;;;;;1.70;1.10;;;19.60;64.60;;;;;;5043298;28;20195;-67
2021/11/01 01:42:00;;;;;;;2.23;0.90;;;19.60;64.70;;;;;;5052555;28;20202;-67
2021/11/01 01:44:33;;;;;;;2.00;1.33;;;19.50;64.60;;;;;;5042056;28;20221;-67
2021/11/01 01:47:06;;;;;;;4.17;1.10;;;19.50;64.60;;;;;;5055608;28;20200;-67
2021/11/01 01:49:37;;;;;;;2.50;1.10;;;19.50;64.60;;;;;;5038002;28;20206;-67
2021/11/01 01:52:06;;;;;;;2.40;1.40;;;19.50;64.60;;;;;;5030134;28;20197;-67
2021/11/01 01:54:34;;;;;;;2.20;1.10;;;19.50;64.60;;;;;;5041069;28;20202;-67
2021/11/01 01:57:04;;;;;;;2.67;1.10;;;19.50;64.50;;;;;;5065197;28;20625;-67
2021/11/01 01:59:35;;;;;;;2.60;1.30;;;19.50;64.50;;;;;;5042408;28;20203;-67
2021/11/01 02:02:03;;;;;;;1.60;1.30;;;19.50;64.50;;;;;;5056378;28;20561;-67
2021/11/01 02:04:35;;;;;;;2.63;1.07;;;19.50;64.50;;;;;;5055115;28;20221;-67
2021/11/01 02:07:37;;;;;;;3.67;1.30;;;19.50;64.60;;;;;;5064837;28;20492;-66
2021/11/01 02:10:16;;;;;;;5.13;1.20;;;19.50;64.60;;;;;;5044360;28;20202;-66
2021/11/01 02:13:06;;;;;;;3.70;1.53;;;19.50;64.50;;;;;;5044018;28;20553;-67
2021/11/01 02:15:43;;;;;;;1.80;1.13;;;19.40;64.50;;;;;;5066803;28;20210;-67
2021/11/01 02:18:17;;;;;;;1.77;1.07;;;19.40;64.50;;;;;;5044444;28;20222;-67
2021/11/01 02:21:12;;;;;;;3.13;1.60;;;19.40;64.50;;;;;;5062923;28;20209;-67
2021/11/01 02:23:53;;;;;;;5.33;1.70;;;19.40;65.10;;;;;;5054913;28;20264;-67
2021/11/01 02:26:35;;;;;;;2.03;1.10;;;19.40;64.50;;;;;;5046000;28;20365;-67
2021/11/01 02:29:07;;;;;;;2.73;1.37;;;19.40;64.40;;;;;;5041573;28;20297;-67
2021/11/01 02:31:40;;;;;;;1.80;1.00;;;19.40;64.50;;;;;;5048245;28;20228;-66
2021/11/01 02:34:15;;;;;;;2.70;1.10;;;19.30;64.40;;;;;;5034046;28;20613;-67
2021/11/01 02:36:48;;;;;;;2.40;1.00;;;19.40;64.40;;;;;;5044865;28;20663;-67
2021/11/01 02:39:19;;;;;;;1.97;0.90;;;19.30;64.40;;;;;;5039698;28;20207;-67
2021/11/01 02:41:50;;;;;;;1.60;0.90;;;19.30;64.40;;;;;;5037418;28;20215;-67
2021/11/01 02:44:22;;;;;;;2.57;1.17;;;19.30;64.40;;;;;;5042965;28;20203;-67
2021/11/01 02:46:54;;;;;;;2.53;1.00;;;19.30;64.40;;;;;;5027047;28;20210;-67
2021/11/01 02:49:25;;;;;;;1.90;1.20;;;19.30;64.40;;;;;;5048017;28;20533;-67
2021/11/01 02:51:56;;;;;;;3.77;1.20;;;19.30;64.40;;;;;;5038921;28;20214;-67
2021/11/01 02:54:28;;;;;;;2.17;1.20;;;19.30;64.30;;;;;;5048611;28;20190;-67
2021/11/01 02:57:02;;;;;;;2.23;1.10;;;19.30;64.30;;;;;;5042018;28;20658;-67
2021/11/01 02:59:35;;;;;;;1.80;1.13;;;19.30;64.40;;;;;;5047612;28;20197;-66
2021/11/01 03:02:03;;;;;;;2.67;1.00;;;19.30;64.40;;;;;;5040038;28;20599;-67
2021/11/01 03:04:35;;;;;;;3.30;1.10;;;19.30;64.40;;;;;;5043412;28;20218;-66
2021/11/01 03:07:08;;;;;;;2.83;1.00;;;19.20;64.30;;;;;;5045464;28;20205;-66
2021/11/01 03:09:45;;;;;;;2.17;1.27;;;19.30;64.40;;;;;;5031791;28;20217;-66
2021/11/01 03:12:28;;;;;;;2.90;1.00;;;19.30;64.40;;;;;;5031104;28;20276;-67
2021/11/01 03:15:02;;;;;;;1.90;1.17;;;19.20;64.30;;;;;;5013363;28;20206;-67
2021/11/01 03:17:43;;;;;;;3.07;1.20;;;19.30;64.40;;;;;;5029495;28;20213;-67
2021/11/01 03:20:31;;;;;;;3.20;1.07;;;19.20;64.40;;;;;;5043345;28;20214;-67
2021/11/01 03:23:07;;;;;;;1.63;0.90;;;19.20;64.30;;;;;;5031859;28;20522;-67
2021/11/01 03:25:50;;;;;;;1.40;0.93;;;19.20;64.30;;;;;;5012548;28;20261;-66
2021/11/01 03:28:20;;;;;;;2.70;1.50;;;19.20;64.40;;;;;;5059427;28;20229;-66
2021/11/01 03:30:52;;;;;;;1.77;1.07;;;19.20;64.30;;;;;;5043120;28;20276;-66
2021/11/01 03:33:23;;;;;;;2.30;1.10;;;19.20;64.30;;;;;;5059509;28;20268;-67
2021/11/01 03:35:56;;;;;;;4.10;1.43;;;19.10;64.20;;;;;;5038396;28;20660;-66
2021/11/01 03:38:25;;;;;;;3.17;1.10;;;19.20;64.20;;;;;;5055951;28;20205;-67
2021/11/01 03:40:57;;;;;;;2.60;1.00;;;19.10;64.20;;;;;;5037612;28;20207;-67
2021/11/01 03:43:34;;;;;;;3.23;1.10;;;19.10;64.20;;;;;;5056978;28;20197;-67
2021/11/01 03:46:12;;;;;;;2.37;1.17;;;19.20;64.20;;;;;;5060256;28;20613;-67
2021/11/01 03:48:44;;;;;;;2.93;1.00;;;19.10;64.20;;;;;;5064594;28;20229;-67
2021/11/01 03:54:11;;;;;;;2.03;0.97;;;19.10;64.20;;;;;;5056801;28;20661;-67
2021/11/01 03:56:43;;;;;;;2.63;1.00;;;19.10;64.20;;;;;;5052488;28;20194;-67
2021/11/01 03:59:17;;;;;;;1.83;0.80;;;19.10;64.20;;;;;;5063956;28;20699;-67
2021/11/01 04:01:45;;;;;;;1.90;0.90;;;19.10;64.20;;;;;;5030054;28;20217;-67
2021/11/01 04:04:16;;;;;;;4.57;1.40;;;19.10;64.20;;;;;;5056766;28;20218;-67
2021/11/01 04:06:45;;;;;;;1.23;0.80;;;19.10;64.20;;;;;;5038503;28;20202;-67
2021/11/01 04:09:17;;;;;;;2.43;1.07;;;19.10;64.20;;;;;;5048181;28;20613;-67
2021/11/01 04:11:51;;;;;;;2.07;1.10;;;19.10;64.20;;;;;;5051959;28;20266;-67
2021/11/01 04:14:27;;;;;;;1.37;0.70;;;19.10;64.20;;;;;;5065644;28;20208;-67
2021/11/01 04:17:00;;;;;;;2.00;1.13;;;19.10;64.20;;;;;;5044568;28;20205;-67
2021/11/01 04:19:35;;;;;;;2.83;1.20;;;19.10;64.20;;;;;;5046264;28;20682;-67
2021/11/01 04:22:06;;;;;;;2.30;1.03;;;19.10;64.20;;;;;;5066244;28;20206;-67
2021/11/01 04:24:39;;;;;;;2.10;1.07;;;19.00;64.20;;;;;;5056926;28;20202;-67
2021/11/01 04:27:10;;;;;;;2.47;1.00;;;19.10;64.20;;;;;;5066477;28;20229;-66
2021/11/01 04:29:42;;;;;;;2.97;1.20;;;19.00;64.20;;;;;;5064319;28;20220;-67
2021/11/01 04:32:26;;;;;;;1.53;0.97;;;19.00;64.20;;;;;;5053004;28;20236;-67
2021/11/01 04:35:34;;;;;;;1.93;0.97;;;19.10;64.20;;;;;;5070810;28;20220;-66
2021/11/01 04:38:03;;;;;;;2.83;1.10;;;19.00;64.80;;;;;;5041718;28;20206;-67
2021/11/01 04:54:41;;;;;;;3.20;1.30;;;19.00;64.30;;;;;;5046698;28;20331;-67
2021/11/01 04:57:26;;;;;;;2.80;1.23;;;19.00;64.30;;;;;;5056682;28;20238;-67
2021/11/01 04:59:57;;;;;;;3.60;1.20;;;19.00;64.30;;;;;;5049525;28;20209;-67
2021/11/01 05:02:29;;;;;;;3.00;1.30;;;19.00;64.40;;;;;;5066233;28;20218;-67
2021/11/01 05:05:00;;;;;;;2.03;0.90;;;19.00;64.40;;;;;;5063467;28;20240;-67
2021/11/01 05:07:29;;;;;;;3.10;1.17;;;19.00;64.40;;;;;;5060794;28;20557;-67
2021/11/01 05:13:26;;;;;;;1.63;1.20;;;19.00;64.30;;;;;;4986083;28;20260;-67
2021/11/01 05:18:38;;;;;;;2.00;1.10;;;19.00;64.30;;;;;;4985181;28;20595;-66
2021/11/01 05:21:28;;;;;;;4.53;1.53;;;19.00;64.30;;;;;;4985188;28;20751;-66
2021/11/01 05:24:22;;;;;;;3.40;1.47;;;18.90;64.20;;;;;;4981490;28;20212;-66
2021/11/01 05:27:07;;;;;;;2.50;1.20;;;18.90;64.10;;;;;;4995704;28;20695;-66
2021/11/01 05:29:54;;;;;;;3.00;1.23;;;19.00;64.10;;;;;;5058395;28;20206;-66
2021/11/01 05:32:27;;;;;;;2.30;1.10;;;18.90;64.10;;;;;;5063219;28;20231;-66
2021/11/01 05:34:57;;;;;;;2.17;1.03;;;18.90;64.10;;;;;;5061329;28;20230;-66
2021/11/01 05:37:29;;;;;;;2.13;0.77;;;18.90;64.10;;;;;;5035772;28;20196;-66
2021/11/01 05:40:23;;;;;;;2.93;1.20;;;18.90;64.00;;;;;;5052851;28;20237;-67
2021/11/01 05:42:55;;;;;;;1.50;0.93;;;18.90;64.00;;;;;;5066471;28;20849;-66
2021/11/01 05:45:24;;;;;;;2.33;1.00;;;18.90;63.90;;;;;;5041003;28;20563;-66
2021/11/01 05:48:05;;;;;;;2.20;0.93;;;18.90;63.90;;;;;;5032546;28;20763;-67
2021/11/01 05:50:38;;;;;;;3.30;1.30;;;18.90;63.90;;;;;;5058912;28;20659;-67
2021/11/01 05:53:12;;;;;;;1.43;1.00;;;18.90;63.90;;;;;;5062872;28;20210;-66
2021/11/01 06:02:08;;;;;;;6.30;1.10;;;18.90;64.10;;;;;;5061230;28;20265;-68
2021/11/01 06:15:53;;;;;;;3.57;1.00;;;19.10;63.90;;;;;;5032554;28;20235;-67
2021/11/01 06:18:35;;;;;;;3.83;1.10;;;19.20;63.80;;;;;;5033942;28;20190;-67
2021/11/01 06:21:05;;;;;;;1.63;0.97;;;19.30;63.90;;;;;;5053571;28;20198;-67
2021/11/01 06:23:39;;;;;;;2.77;1.20;;;19.30;63.70;;;;;;5027531;28;20232;-67
2021/11/01 06:26:11;;;;;;;3.47;1.00;;;19.40;63.70;;;;;;5072457;28;20205;-67
2021/11/01 06:28:43;;;;;;;2.47;1.03;;;19.40;63.50;;;;;;5046544;28;20301;-67
2021/11/01 06:31:27;;;;;;;4.03;1.50;;;19.50;63.50;;;;;;5071331;28;20269;-68
2021/11/01 06:42:59;;;;;;;2.60;1.03;;;19.60;63.30;;;;;;5004393;28;20661;-68
2021/11/01 06:56:57;;;;;;;3.57;1.50;;;19.80;61.60;;;;;;4994445;28;20554;-66
2021/11/01 07:16:55;;;;;;;50.30;10.03;;;19.80;62.30;;;;;;5039030;28;20233;-70
2021/11/01 07:19:48;;;;;;;37.87;10.00;;;19.80;62.50;;;;;;5047166;28;20705;-68
2021/11/01 08:17:31;;;;;;;18.07;6.53;;;20.10;63.90;;;;;;5057758;28;20209;-71
2021/11/01 08:47:45;;;;;;;6.13;2.40;;;20.70;61.50;;;;;;4989682;28;20200;-70
2021/11/01 09:04:34;;;;;;;4.60;1.80;;;20.90;61.00;;;;;;5028539;28;20782;-68
2021/11/01 09:10:16;;;;;;;7.53;1.70;;;20.90;61.10;;;;;;5065472;28;20755;-68
2021/11/01 09:21:15;;;;;;;3.00;1.50;;;20.90;61.00;;;;;;5042935;28;20224;-67
2021/11/01 09:24:28;;;;;;;5.47;1.60;;;21.00;60.90;;;;;;5049187;28;20193;-68
2021/11/01 09:26:55;;;;;;;4.03;1.70;;;21.00;61.50;;;;;;5061132;28;20203;-68
2021/11/01 09:41:10;;;;;;;4.33;1.53;;;21.00;60.30;;;;;;5046775;28;20720;-72
2021/11/01 09:43:56;;;;;;;3.13;1.33;;;21.10;60.80;;;;;;5054515;28;20205;-73
2021/11/01 09:46:29;;;;;;;3.03;1.40;;;21.10;60.70;;;;;;5047073;28;20263;-68
2021/11/01 09:49:14;;;;;;;3.63;1.40;;;21.10;60.80;;;;;;5068419;28;20209;-72
2021/11/01 09:51:47;;;;;;;2.73;1.30;;;21.10;60.80;;;;;;5060731;28;20319;-66
2021/11/01 09:54:39;;;;;;;2.53;1.30;;;21.10;60.80;;;;;;5043324;28;20293;-68
2021/11/01 09:57:28;;;;;;;3.63;1.60;;;21.10;60.90;;;;;;5051466;28;20581;-71
2021/11/01 10:00:04;;;;;;;3.63;1.23;;;21.20;61.00;;;;;;5058395;28;20205;-71
2021/11/01 10:02:46;;;;;;;1.93;1.00;;;21.20;61.20;;;;;;5060915;28;20742;-71
2021/11/01 10:05:26;;;;;;;3.27;1.30;;;21.20;61.40;;;;;;5061295;28;20706;-71
2021/11/01 10:07:55;;;;;;;2.63;1.07;;;21.20;61.50;;;;;;5040450;28;20205;-71
2021/11/01 10:10:30;;;;;;;2.60;1.33;;;21.20;61.50;;;;;;5066567;28;20234;-67
2021/11/01 10:13:14;;;;;;;2.77;1.13;;;21.20;61.70;;;;;;5067950;28;20548;-67
2021/11/01 10:18:50;;;;;;;3.13;1.53;;;21.20;61.60;;;;;;5044773;28;20618;-70
2021/11/01 10:21:19;;;;;;;3.27;1.43;;;21.30;61.60;;;;;;5062175;28;20652;-68
2021/11/01 10:23:55;;;;;;;4.33;1.70;;;21.20;61.60;;;;;;5058772;28;20202;-69
2021/11/01 10:26:30;;;;;;;2.97;1.10;;;21.30;61.70;;;;;;5044214;28;20206;-68
2021/11/01 10:29:23;;;;;;;3.80;1.33;;;21.30;61.70;;;;;;5041401;28;20213;-68
2021/11/01 10:31:56;;;;;;;2.67;1.33;;;21.30;61.90;;;;;;5062144;28;20201;-69
2021/11/01 10:34:32;;;;;;;3.60;1.23;;;21.30;61.90;;;;;;5035421;28;20191;-66
2021/11/01 10:37:10;;;;;;;3.00;1.23;;;21.30;61.70;;;;;;5060925;28;20201;-69
2021/11/01 10:39:42;;;;;;;2.43;1.23;;;21.30;61.90;;;;;;5055535;28;20215;-71
2021/11/01 10:42:24;;;;;;;3.37;1.23;;;21.40;62.00;;;;;;5054728;28;20672;-69
2021/11/01 10:45:12;;;;;;;3.70;1.77;;;21.40;62.10;;;;;;5056358;28;20563;-67
2021/11/01 10:57:13;;;;;;;5.57;1.23;;;21.40;61.80;;;;;;5057600;28;20198;-67
2021/11/01 11:25:35;;;;;;;6.23;1.07;;;21.20;61.60;;;;;;5060174;28;20206;-66
2021/11/01 11:34:00;;;;;;;3.93;1.13;;;21.10;62.00;;;;;;5048500;28;20223;-67
2021/11/01 11:39:50;;;;;;;5.27;1.00;;;21.00;62.10;;;;;;5064521;28;20776;-70
2021/11/01 11:48:23;;;;;;;3.37;1.20;;;21.00;63.00;;;;;;5059517;28;20232;-67
2021/11/01 11:51:03;;;;;;;1.93;1.10;;;21.10;63.00;;;;;;5051427;28;20194;-69
2021/11/01 11:53:34;;;;;;;1.47;0.90;;;21.10;62.80;;;;;;5041987;28;20583;-69
2021/11/01 11:56:10;;;;;;;2.73;0.97;;;21.10;62.90;;;;;;5058231;28;20198;-71
2021/11/01 11:58:43;;;;;;;2.23;0.97;;;21.10;62.70;;;;;;5040242;28;20284;-69
2021/11/01 12:01:34;;;;;;;4.00;0.87;;;21.20;62.50;;;;;;5026934;28;20259;-67
2021/11/01 12:04:22;;;;;;;2.17;1.10;;;21.20;62.70;;;;;;5029648;28;20195;-68
2021/11/01 12:07:06;;;;;;;4.30;1.60;;;21.20;62.40;;;;;;5049204;28;20213;-67
2021/11/01 12:09:53;;;;;;;2.03;0.93;;;21.20;62.40;;;;;;5063814;28;20194;-67
2021/11/01 12:18:02;;;;;;;3.80;1.33;;;21.30;62.50;;;;;;5040508;28;20212;-69
2021/11/01 12:20:33;;;;;;;6.80;1.10;;;21.30;62.50;;;;;;5060452;28;20194;-65
2021/11/01 12:23:07;;;;;;;1.33;1.07;;;21.40;62.40;;;;;;5053833;28;20602;-66
2021/11/01 12:25:41;;;;;;;2.90;1.03;;;21.40;62.50;;;;;;5048377;28;20280;-67
2021/11/01 12:28:20;;;;;;;1.73;0.77;;;21.50;62.40;;;;;;5054491;28;20237;-67
2021/11/01 12:31:04;;;;;;;2.40;0.73;;;21.40;62.30;;;;;;5063528;28;20197;-68
2021/11/01 12:33:51;;;;;;;3.30;1.10;;;21.50;62.30;;;;;;5058495;28;20857;-68
2021/11/01 12:36:39;;;;;;;2.53;1.00;;;21.50;62.20;;;;;;5052536;28;20213;-71
2021/11/01 12:39:53;;;;;;;1.77;1.10;;;21.50;62.40;;;;;;5056897;28;20201;-69
2021/11/01 12:57:13;;;;;;;4.27;1.17;;;21.60;62.40;;;;;;5048172;28;20276;-69
2021/11/01 12:59:48;;;;;;;1.93;0.90;;;21.60;62.30;;;;;;5016491;28;20190;-71
2021/11/01 13:02:41;;;;;;;1.43;0.70;;;21.70;62.30;;;;;;5053545;28;20254;-71
2021/11/01 13:05:25;;;;;;;2.37;1.00;;;21.70;62.40;;;;;;5052483;28;20334;-68
2021/11/01 13:08:03;;;;;;;2.63;1.03;;;21.70;62.50;;;;;;5050220;28;20214;-69
2021/11/01 13:19:17;;;;;;;2.10;0.93;;;21.80;62.50;;;;;;5059685;28;20202;-66
2021/11/01 13:22:15;;;;;;;2.00;1.33;;;21.80;62.10;;;;;;5054808;28;20274;-67
2021/11/01 13:36:26;;;;;;;3.50;1.27;;;21.80;62.20;;;;;;5034026;28;20205;-65
2021/11/01 13:39:08;;;;;;;3.53;1.60;;;21.80;62.30;;;;;;5058018;28;20214;-65
2021/11/01 13:41:49;;;;;;;1.80;1.10;;;21.80;62.10;;;;;;5053393;28;20209;-69
2021/11/01 13:44:25;;;;;;;1.60;1.13;;;21.80;62.30;;;;;;5052543;28;20213;-66
2021/11/01 13:47:05;;;;;;;4.10;1.10;;;21.80;62.10;;;;;;5057173;28;20632;-66
2021/11/01 13:49:58;;;;;;;10.17;1.50;;;21.90;62.10;;;;;;5060126;28;20193;-66
2021/11/01 13:52:38;;;;;;;2.33;1.43;;;21.90;62.10;;;;;;5051022;28;20225;-69
2021/11/01 13:58:06;;;;;;;2.10;1.20;;;21.90;62.00;;;;;;5057663;28;20206;-67
2021/11/01 14:12:50;;;;;;;3.57;1.40;;;21.90;61.40;;;;;;5050393;28;20194;-68
2021/11/01 14:18:47;;;;;;;2.57;1.03;;;21.90;62.10;;;;;;5040112;28;20201;-66
2021/11/01 15:07:09;;;;;;;1.53;0.80;;;21.80;62.40;;;;;;5056757;28;20211;-67
2021/11/01 15:17:32;;;;;;;1.50;1.07;;;21.90;62.60;;;;;;5060914;28;20221;-69
2021/11/01 15:28:29;;;;;;;3.90;1.10;;;22.00;62.40;;;;;;5055836;28;20707;-66
2021/11/01 15:34:21;;;;;;;1.57;0.80;;;22.00;62.20;;;;;;5053274;28;20605;-67
2021/11/01 15:37:13;;;;;;;3.03;0.70;;;22.00;62.10;;;;;;5044779;28;20197;-67
2021/11/01 15:39:46;;;;;;;5.50;1.03;;;22.10;62.20;;;;;;5071087;28;20205;-66
2021/11/01 16:19:38;;;;;;;1.67;1.10;;;22.20;61.50;;;;;;5032529;28;20210;-69
2021/11/01 16:22:09;;;;;;;5.03;1.10;;;22.20;61.50;;;;;;5049824;28;20543;-69
2021/11/01 16:24:50;;;;;;;1.93;1.20;;;22.20;61.40;;;;;;5051762;28;20202;-71
2021/11/01 16:27:23;;;;;;;3.37;1.20;;;22.20;61.40;;;;;;5018048;28;20229;-71
2021/11/01 16:30:00;;;;;;;2.10;0.97;;;22.20;61.30;;;;;;5061134;28;20194;-68
2021/11/01 16:32:45;;;;;;;2.23;1.20;;;22.20;61.40;;;;;;5060380;28;20210;-68
2021/11/01 16:35:25;;;;;;;3.53;0.90;;;22.20;61.20;;;;;;5042640;28;20232;-67
2021/11/01 16:38:43;;;;;;;1.47;0.80;;;22.20;61.20;;;;;;5023444;28;20205;-68
2021/11/01 16:40:56;;;;;;;2.33;1.20;;;22.20;61.20;;;;;;5042764;28;20210;-68
2021/11/01 16:43:30;;;;;;;3.13;1.30;;;22.30;61.10;;;;;;5049779;28;20206;-70
2021/11/01 16:46:02;;;;;;;1.93;1.10;;;22.20;61.00;;;;;;5058679;28;20202;-70
2021/11/01 16:48:33;;;;;;;2.37;1.03;;;22.30;60.90;;;;;;5048603;28;20198;-70
2021/11/01 16:51:04;;;;;;;1.80;1.10;;;22.30;60.70;;;;;;5058407;28;20648;-70
2021/11/01 16:53:34;;;;;;;2.53;1.23;;;22.30;60.60;;;;;;5060028;28;20196;-70
2021/11/01 16:56:38;;;;;;;4.27;1.27;;;22.30;60.70;;;;;;5040405;28;20552;-72
2021/11/01 16:59:26;;;;;;;3.63;1.70;;;22.30;60.90;;;;;;5041111;28;20267;-68
2021/11/01 17:02:05;;;;;;;2.67;1.20;;;22.30;59.30;;;;;;5045141;28;20212;-68
2021/11/01 17:04:41;;;;;;;4.20;1.33;;;22.10;60.00;;;;;;5033629;28;20202;-68
2021/11/01 17:07:28;;;;;;;4.43;1.53;;;22.00;60.50;;;;;;5042988;28;20668;-68
2021/11/01 17:21:45;;;;;;;3.03;1.33;;;21.60;61.20;;;;;;5052364;28;20209;-68
2021/11/01 17:30:50;;;;;;;2.73;1.17;;;21.40;61.50;;;;;;4940732;28;20655;-68
2021/11/01 17:36:26;;;;;;;3.57;1.20;;;21.30;61.40;;;;;;5043203;28;20433;-68
2021/11/01 18:45:54;;;;;;;1.63;0.80;;;21.10;61.60;;;;;;5053019;28;20251;-66
2021/11/01 18:51:37;;;;;;;1.30;0.80;;;21.10;61.40;;;;;;5040257;28;20267;-68
2021/11/01 18:54:21;;;;;;;1.33;0.80;;;21.10;61.60;;;;;;5053799;28;20229;-67
2021/11/01 18:56:58;;;;;;;1.30;0.90;;;21.10;60.90;;;;;;5050763;28;20198;-67
2021/11/01 18:59:32;;;;;;;2.07;1.03;;;21.10;61.40;;;;;;5055961;28;20196;-66
2021/11/01 19:02:50;;;;;;;1.53;0.90;;;21.10;60.90;;;;;;5064311;28;20202;-66
2021/11/01 19:05:33;;;;;;;1.27;0.80;;;21.20;61.20;;;;;;5054626;28;20214;-66
2021/11/01 19:08:22;;;;;;;1.17;0.80;;;21.20;60.80;;;;;;5059775;28;20229;-66
2021/11/01 20:03:15;;;;;;;2.73;1.10;;;21.10;60.90;;;;;;5035978;28;20238;-66
2021/11/01 21:27:48;;;;;;;1.10;0.90;;;20.80;62.30;;;;;;5010994;28;20396;-66
2021/11/01 21:30:19;;;;;;;1.87;1.17;;;20.80;61.70;;;;;;5056356;28;20224;-66
2021/11/01 21:32:51;;;;;;;2.53;1.13;;;20.80;61.90;;;;;;5046713;28;20281;-68
2021/11/01 21:35:26;;;;;;;1.57;1.00;;;20.80;61.60;;;;;;5058936;28;20209;-67
2021/11/01 21:37:59;;;;;;;1.87;1.00;;;20.80;61.40;;;;;;5059734;28;20266;-68
2021/11/01 21:40:29;;;;;;;1.87;1.00;;;20.80;61.00;;;;;;5046332;28;20259;-68
2021/11/01 21:42:59;;;;;;;1.60;1.10;;;20.80;60.70;;;;;;5059114;28;20217;-68
2021/11/01 21:45:46;;;;;;;1.40;1.07;;;20.90;60.70;;;;;;5049965;28;20217;-67
2021/11/01 21:48:15;;;;;;;1.50;1.20;;;20.90;60.70;;;;;;5055557;28;20609;-68
2021/11/01 21:50:51;;;;;;;3.40;1.20;;;20.90;60.60;;;;;;5047786;28;20197;-68
2021/11/01 21:53:24;;;;;;;1.87;1.20;;;20.90;60.60;;;;;;5040229;28;20832;-68
2021/11/01 21:55:56;;;;;;;4.53;1.10;;;20.90;60.40;;;;;;5063762;28;20317;-68
2021/11/01 22:01:42;;;;;;;1.13;1.03;;;21.00;61.10;;;;;;5073611;28;20193;-66
2021/11/01 22:18:32;;;;;;;1.37;1.20;;;21.00;59.80;;;;;;5057468;28;20895;-67
2021/11/01 22:33:06;;;;;;;9.77;2.70;;;20.90;60.50;;;;;;5045696;28;20209;-68
2021/11/01 22:39:05;;;;;;;4.87;1.93;;;20.80;60.60;;;;;;5061866;28;20194;-67
2021/11/01 22:44:46;;;;;;;7.23;2.27;;;20.80;60.60;;;;;;5022126;28;20211;-67
2021/11/01 22:56:33;;;;;;;4.37;2.23;;;20.60;60.60;;;;;;5060951;28;20238;-68
2021/11/01 22:59:08;;;;;;;5.27;2.00;;;20.60;60.70;;;;;;5067575;28;20204;-68
2021/11/01 23:01:40;;;;;;;5.10;2.00;;;20.60;60.70;;;;;;5055598;28;20655;-68
2021/11/01 23:32:37;;;;;;;4.80;2.63;;;20.30;61.20;;;;;;5063645;28;20189;-67
2021/11/01 23:35:07;;;;;;;5.83;2.30;;;20.20;61.20;;;;;;5061111;28;20205;-67
2021/11/01 23:37:39;;;;;;;6.30;2.70;;;20.20;61.30;;;;;;5064755;28;20201;-67
2021/11/01 23:40:08;;;;;;;4.53;2.63;;;20.20;61.30;;;;;;5060693;28;20195;-67
2021/11/01 23:42:38;;;;;;;7.83;2.47;;;20.20;61.30;;;;;;5050837;28;20213;-67
2021/11/01 23:45:13;;;;;;;6.80;2.60;;;20.10;61.30;;;;;;5031585;28;20639;-67
2021/11/01 23:47:45;;;;;;;6.07;2.43;;;20.10;61.30;;;;;;5066906;28;20447;-67
2021/11/01 23:50:14;;;;;;;5.33;2.30;;;20.10;61.30;;;;;;5058342;28;20221;-67
2021/11/01 23:53:02;;;;;;;6.43;2.77;;;20.10;61.30;;;;;;5068488;28;20202;-67
2021/11/01 23:55:33;;;;;;;4.17;1.97;;;20.10;61.30;;;;;;5055349;28;20638;-67
2021/11/01 23:58:07;;;;;;;3.77;2.00;;;20.00;61.30;;;;;;5063692;28;20610;-67
